createdAt,value
2019-02-02T00:00:01.783Z,0.60
2019-02-02T00:02:29.241Z,0.60
2019-02-02T00:04:55.985Z,0.50
2019-02-02T00:07:24.060Z,0.50
2019-02-02T00:09:50.759Z,0.50
2019-02-02T00:12:17.953Z,0.50
2019-02-02T00:14:45.328Z,0.60
2019-02-02T00:17:11.612Z,0.60
2019-02-02T00:19:39.121Z,0.70
2019-02-02T00:22:05.937Z,0.70
2019-02-02T00:24:33.279Z,0.60
2019-02-02T00:27:00.195Z,0.60
2019-02-02T00:29:27.805Z,0.70
2019-02-02T00:31:54.566Z,0.80
2019-02-02T00:34:21.358Z,0.70
2019-02-02T00:36:48.206Z,0.70
2019-02-02T00:39:15.739Z,0.70
2019-02-02T00:41:43.374Z,0.70
2019-02-02T00:44:10.927Z,0.60
2019-02-02T00:46:38.158Z,0.60
2019-02-02T00:49:06.662Z,0.60
2019-02-02T00:51:33.710Z,0.60
2019-02-02T00:54:01.176Z,0.60
2019-02-02T00:56:27.975Z,0.70
2019-02-02T00:58:54.711Z,0.70
2019-02-02T01:01:22.684Z,0.70
2019-02-02T01:03:50.218Z,0.70
2019-02-02T01:06:17.738Z,0.60
2019-02-02T01:08:44.827Z,0.60
2019-02-02T01:11:11.663Z,0.70
2019-02-02T01:13:38.439Z,0.70
2019-02-02T01:16:05.396Z,0.70
2019-02-02T01:18:32.213Z,0.70
2019-02-02T01:20:59.001Z,0.80
2019-02-02T01:23:26.558Z,0.80
2019-02-02T01:25:53.769Z,0.70
2019-02-02T01:28:20.617Z,0.70
2019-02-02T01:30:48.237Z,0.60
2019-02-02T01:33:15.519Z,0.60
2019-02-02T01:35:42.436Z,0.70
2019-02-02T01:38:09.944Z,0.70
2019-02-02T01:40:36.671Z,0.70
2019-02-02T01:43:03.406Z,0.80
2019-02-02T01:45:34.507Z,0.90
2019-02-02T01:48:03.291Z,0.80
2019-02-02T01:50:31.137Z,0.80
2019-02-02T01:52:58.043Z,0.80
2019-02-02T01:55:25.581Z,0.90
2019-02-02T01:57:53.239Z,0.90
2019-02-02T02:00:35.719Z,0.90
2019-02-02T02:03:02.529Z,0.80
2019-02-02T02:05:29.390Z,0.90
2019-02-02T02:07:56.324Z,0.80
2019-02-02T02:10:23.117Z,0.80
2019-02-02T02:12:50.257Z,0.90
2019-02-02T02:15:17.117Z,0.90
2019-02-02T02:17:43.913Z,0.90
2019-02-02T02:20:11.810Z,1.00
2019-02-02T02:22:41.193Z,0.90
2019-02-02T02:25:06.261Z,1.00
2019-02-02T02:27:33.844Z,1.00
2019-02-02T02:30:11.098Z,1.00
2019-02-02T02:32:37.819Z,1.00
2019-02-02T02:35:04.654Z,0.80
2019-02-02T02:37:31.511Z,0.90
2019-02-02T02:39:58.927Z,0.90
2019-02-02T02:42:26.269Z,0.90
2019-02-02T02:44:53.256Z,0.80
2019-02-02T02:47:20.059Z,0.90
2019-02-02T02:49:46.759Z,0.90
2019-02-02T02:52:13.801Z,1.00
2019-02-02T02:54:41.356Z,0.80
2019-02-02T02:57:08.092Z,0.80
2019-02-02T02:59:35.512Z,0.90
2019-02-02T03:02:02.376Z,0.90
2019-02-02T03:04:29.192Z,0.90
2019-02-02T03:06:56.328Z,1.00
2019-02-02T03:09:23.717Z,0.80
2019-02-02T03:11:50.570Z,0.80
2019-02-02T03:14:17.761Z,0.90
2019-02-02T03:16:45.411Z,0.80
2019-02-02T03:19:12.226Z,0.70
2019-02-02T03:21:39.148Z,0.80
2019-02-02T03:24:05.926Z,0.80
2019-02-02T03:26:32.892Z,0.80
2019-02-02T03:28:59.812Z,0.80
2019-02-02T03:31:26.540Z,0.90
2019-02-02T03:33:53.510Z,1.00
2019-02-02T03:36:21.036Z,1.00
2019-02-02T03:38:47.771Z,1.00
2019-02-02T03:41:14.587Z,1.00
2019-02-02T03:43:41.448Z,1.00
2019-02-02T03:46:08.180Z,1.00
2019-02-02T03:48:34.939Z,0.90
2019-02-02T03:51:02.528Z,0.90
2019-02-02T03:53:31.355Z,0.90
2019-02-02T03:58:30.247Z,0.90
2019-02-02T04:00:57.041Z,1.00
2019-02-02T04:03:23.908Z,1.00
2019-02-02T04:05:51.470Z,1.00
2019-02-02T04:08:18.244Z,1.00
2019-02-02T04:10:45.984Z,1.00
2019-02-02T04:13:13.710Z,1.00
2019-02-02T04:15:40.445Z,1.00
2019-02-02T04:18:07.317Z,1.00
2019-02-02T04:20:34.734Z,1.00
2019-02-02T04:23:03.043Z,0.90
2019-02-02T04:25:29.848Z,0.90
2019-02-02T04:27:56.721Z,0.90
2019-02-02T04:30:23.574Z,1.00
2019-02-02T04:32:50.510Z,1.00
2019-02-02T04:35:17.400Z,1.00
2019-02-02T04:37:44.197Z,1.00
2019-02-02T04:40:11.321Z,1.00
2019-02-02T04:42:38.246Z,1.00
2019-02-02T04:45:05.031Z,1.00
2019-02-02T04:47:31.889Z,1.10
2019-02-02T04:49:58.697Z,1.10
2019-02-02T04:52:25.559Z,1.20
2019-02-02T04:54:52.383Z,1.10
2019-02-02T04:57:19.140Z,1.20
2019-02-02T04:59:46.357Z,1.20
2019-02-02T05:02:13.134Z,1.10
2019-02-02T05:04:39.872Z,1.10
2019-02-02T05:07:06.675Z,1.10
2019-02-02T05:09:33.467Z,1.10
2019-02-02T05:12:00.235Z,1.10
2019-02-02T05:14:27.735Z,1.10
2019-02-02T05:16:54.497Z,1.10
2019-02-02T05:19:21.238Z,1.10
2019-02-02T05:21:48.011Z,1.10
2019-02-02T05:24:15.479Z,1.10
2019-02-02T05:26:43.518Z,1.20
2019-02-02T05:29:10.379Z,1.10
2019-02-02T05:31:39.726Z,1.20
2019-02-02T05:34:08.468Z,1.20
2019-02-02T05:36:37.214Z,1.10
2019-02-02T05:39:04.107Z,1.10
2019-02-02T05:41:31.646Z,1.10
2019-02-02T05:43:58.583Z,1.10
2019-02-02T05:46:25.314Z,1.20
2019-02-02T05:48:52.007Z,1.20
2019-02-02T05:51:19.893Z,1.10
2019-02-02T05:53:47.238Z,1.10
2019-02-02T05:56:14.001Z,1.10
2019-02-02T05:58:42.531Z,1.20
2019-02-02T06:01:10.439Z,1.10
2019-02-02T06:03:37.207Z,1.10
2019-02-02T06:06:04.357Z,1.00
2019-02-02T06:08:31.202Z,1.00
2019-02-02T06:10:58.248Z,1.10
2019-02-02T06:13:25.319Z,1.10
2019-02-02T06:15:52.068Z,1.00
2019-02-02T06:18:19.031Z,1.00
2019-02-02T06:20:45.869Z,1.00
2019-02-02T06:23:13.556Z,1.20
2019-02-02T06:25:40.281Z,1.10
2019-02-02T06:28:08.404Z,1.00
2019-02-02T06:30:35.156Z,1.00
2019-02-02T06:33:01.926Z,1.00
2019-02-02T06:35:29.545Z,1.10
2019-02-02T06:37:56.296Z,1.00
2019-02-02T06:40:23.065Z,1.00
2019-02-02T06:42:50.631Z,1.20
2019-02-02T06:45:23.188Z,1.20
2019-02-02T06:47:57.102Z,1.20
2019-02-02T06:50:24.693Z,1.20
2019-02-02T06:52:51.542Z,1.10
2019-02-02T06:55:18.266Z,1.10
2019-02-02T06:57:47.708Z,1.20
2019-02-02T07:00:32.345Z,1.20
2019-02-02T07:02:59.321Z,1.10
2019-02-02T07:05:27.156Z,1.20
2019-02-02T07:07:55.013Z,1.20
2019-02-02T07:10:21.914Z,1.20
2019-02-02T07:12:57.028Z,1.20
2019-02-02T07:15:24.194Z,1.20
2019-02-02T07:17:51.808Z,1.10
2019-02-02T07:20:18.587Z,1.10
2019-02-02T07:22:45.387Z,1.20
2019-02-02T07:25:12.205Z,1.20
2019-02-02T07:27:39.740Z,1.10
2019-02-02T07:30:14.717Z,1.10
2019-02-02T07:32:42.350Z,1.20
2019-02-02T07:35:09.102Z,1.10
2019-02-02T07:37:36.163Z,1.00
2019-02-02T07:40:03.959Z,1.20
2019-02-02T07:42:31.851Z,1.20
2019-02-02T07:44:58.654Z,1.20
2019-02-02T07:47:25.481Z,1.20
2019-02-02T07:49:53.032Z,1.20
2019-02-02T07:52:20.653Z,1.30
2019-02-02T07:54:47.474Z,1.30
2019-02-02T07:57:14.225Z,1.30
2019-02-02T07:59:40.972Z,1.40
2019-02-02T08:02:08.674Z,1.50
2019-02-02T08:04:36.599Z,1.50
2019-02-02T08:07:13.381Z,1.50
2019-02-02T08:09:40.224Z,1.40
2019-02-02T08:12:06.976Z,1.40
2019-02-02T08:14:35.511Z,1.50
2019-02-02T08:17:03.148Z,1.50
2019-02-02T08:19:29.912Z,1.50
2019-02-02T08:21:56.706Z,1.50
2019-02-02T08:24:23.535Z,1.50
2019-02-02T08:26:50.425Z,1.50
2019-02-02T08:29:17.959Z,1.60
2019-02-02T08:31:44.671Z,1.60
2019-02-02T08:34:11.439Z,1.60
2019-02-02T08:36:38.584Z,1.70
2019-02-02T08:39:05.401Z,1.50
2019-02-02T08:41:32.217Z,1.60
2019-02-02T08:43:59.747Z,1.60
2019-02-02T08:46:26.526Z,1.60
2019-02-02T08:48:53.288Z,1.70
2019-02-02T08:51:20.072Z,1.70
2019-02-02T08:53:46.781Z,1.90
2019-02-02T08:56:13.677Z,1.70
2019-02-02T08:58:40.454Z,1.70
2019-02-02T09:01:07.256Z,1.60
2019-02-02T09:03:34.077Z,1.50
2019-02-02T09:06:01.167Z,1.60
2019-02-02T09:08:28.743Z,1.60
2019-02-02T09:10:55.486Z,1.70
2019-02-02T09:13:23.005Z,1.50
2019-02-02T09:15:49.787Z,1.40
2019-02-02T09:18:16.859Z,1.40
2019-02-02T09:20:43.599Z,1.40
2019-02-02T09:23:10.424Z,1.40
2019-02-02T09:25:37.247Z,1.40
2019-02-02T09:28:04.038Z,1.40
2019-02-02T09:30:31.614Z,1.50
2019-02-02T09:32:59.056Z,1.60
2019-02-02T09:35:25.819Z,1.50
2019-02-02T09:37:53.459Z,1.70
2019-02-02T09:40:20.300Z,1.70
2019-02-02T09:42:47.845Z,2.00
2019-02-02T09:45:15.510Z,2.00
2019-02-02T09:47:42.294Z,1.90
2019-02-02T09:50:10.583Z,2.00
2019-02-02T09:52:38.235Z,2.00
2019-02-02T09:55:05.120Z,2.00
2019-02-02T09:57:31.930Z,2.10
2019-02-02T09:59:59.106Z,2.20
2019-02-02T10:02:27.104Z,2.20
2019-02-02T10:04:53.691Z,2.00
2019-02-02T10:07:20.513Z,2.00
2019-02-02T10:09:48.004Z,2.20
2019-02-02T10:12:14.750Z,2.10
2019-02-02T10:14:41.551Z,2.30
2019-02-02T10:17:09.080Z,2.30
2019-02-02T10:19:36.001Z,2.30
2019-02-02T10:22:03.709Z,2.20
2019-02-02T10:24:30.483Z,2.30
2019-02-02T10:26:57.246Z,2.40
2019-02-02T10:29:24.276Z,2.50
2019-02-02T10:31:51.044Z,2.80
2019-02-02T10:34:17.872Z,2.80
2019-02-02T10:36:44.687Z,2.90
2019-02-02T10:39:12.110Z,3.00
2019-02-02T10:41:39.677Z,2.50
2019-02-02T10:44:06.484Z,2.50
2019-02-02T10:46:33.210Z,2.60
2019-02-02T10:49:00.024Z,2.70
2019-02-02T10:51:26.816Z,2.60
2019-02-02T10:53:53.576Z,2.60
2019-02-02T10:56:20.492Z,2.70
2019-02-02T10:58:47.989Z,2.60
2019-02-02T11:01:15.450Z,2.40
2019-02-02T11:03:42.979Z,2.40
2019-02-02T11:06:09.834Z,2.40
2019-02-02T11:08:36.668Z,2.50
2019-02-02T11:11:03.545Z,2.30
2019-02-02T11:13:30.485Z,2.20
2019-02-02T11:15:57.246Z,2.20
2019-02-02T11:18:24.212Z,2.20
2019-02-02T11:20:51.781Z,2.10
2019-02-02T11:23:19.367Z,2.10
2019-02-02T11:25:46.402Z,2.10
2019-02-02T11:28:13.224Z,1.80
2019-02-02T11:30:40.197Z,1.80
2019-02-02T11:33:07.683Z,1.70
2019-02-02T11:35:34.485Z,1.70
2019-02-02T11:38:01.397Z,1.80
2019-02-02T11:40:29.062Z,1.70
2019-02-02T11:42:57.066Z,1.90
2019-02-02T11:45:23.922Z,1.90
2019-02-02T11:47:50.802Z,1.80
2019-02-02T11:50:17.625Z,1.60
2019-02-02T11:52:45.297Z,1.70
2019-02-02T11:55:12.335Z,1.60
2019-02-02T11:57:39.987Z,1.90
2019-02-02T12:00:08.526Z,2.00
2019-02-02T12:02:35.300Z,2.00
2019-02-02T12:05:02.193Z,2.00
2019-02-02T12:07:28.959Z,2.10
2019-02-02T12:09:55.741Z,2.20
2019-02-02T12:12:22.670Z,2.20
2019-02-02T12:17:29.551Z,2.00
2019-02-02T12:19:56.422Z,2.10
2019-02-02T12:22:23.301Z,2.00
2019-02-02T12:24:50.225Z,2.20
2019-02-02T12:27:17.829Z,2.20
2019-02-02T12:29:44.707Z,2.10
2019-02-02T12:32:12.315Z,1.70
2019-02-02T12:34:39.083Z,1.70
2019-02-02T12:37:05.812Z,1.80
2019-02-02T12:39:32.713Z,1.80
2019-02-02T12:41:59.509Z,1.80
2019-02-02T12:44:26.298Z,1.80
2019-02-02T12:46:53.821Z,1.50
2019-02-02T12:49:20.587Z,1.50
2019-02-02T12:51:47.379Z,1.50
2019-02-02T12:54:14.464Z,1.40
2019-02-02T12:56:41.202Z,1.40
2019-02-02T12:59:08.065Z,1.40
2019-02-02T13:01:34.869Z,1.40
2019-02-02T13:04:05.217Z,1.30
2019-02-02T13:06:28.483Z,1.30
2019-02-02T13:08:55.961Z,1.20
2019-02-02T13:11:24.008Z,1.20
2019-02-02T13:13:50.252Z,1.30
2019-02-02T13:16:17.762Z,1.40
2019-02-02T13:18:44.656Z,1.40
2019-02-02T13:21:11.467Z,1.50
2019-02-02T13:23:38.177Z,1.40
2019-02-02T13:26:05.905Z,1.40
2019-02-02T13:28:33.063Z,1.20
2019-02-02T13:31:00.570Z,1.30
2019-02-02T13:33:27.420Z,1.30
2019-02-02T13:35:54.285Z,1.20
2019-02-02T13:38:21.037Z,1.30
2019-02-02T13:40:48.576Z,1.20
2019-02-02T13:43:15.359Z,1.20
2019-02-02T13:45:42.803Z,1.20
2019-02-02T13:48:10.938Z,1.20
2019-02-02T13:50:37.739Z,1.10
2019-02-02T13:53:04.585Z,1.20
2019-02-02T13:55:31.445Z,1.10
2019-02-02T13:57:58.223Z,1.10
2019-02-02T14:00:25.848Z,1.10
2019-02-02T14:03:02.293Z,1.00
2019-02-02T14:05:19.743Z,1.10
2019-02-02T14:07:46.557Z,1.10
2019-02-02T14:10:13.811Z,1.10
2019-02-02T14:12:40.601Z,1.20
2019-02-02T14:15:08.394Z,1.10
2019-02-02T14:17:37.419Z,1.10
2019-02-02T14:20:05.328Z,1.10
2019-02-02T14:22:32.880Z,1.00
2019-02-02T14:25:07.523Z,1.10
2019-02-02T14:27:34.286Z,1.10
2019-02-02T14:30:01.305Z,1.20
2019-02-02T14:32:28.857Z,1.10
2019-02-02T14:34:55.650Z,1.10
2019-02-02T14:37:22.438Z,1.10
2019-02-02T14:39:49.450Z,1.00
2019-02-02T14:42:18.331Z,1.10
2019-02-02T14:44:43.820Z,1.00
2019-02-02T14:47:10.586Z,1.10
2019-02-02T14:49:37.430Z,1.10
2019-02-02T14:52:04.226Z,1.20
2019-02-02T14:54:31.748Z,1.20
2019-02-02T14:56:58.566Z,1.20
2019-02-02T14:59:25.322Z,1.10
2019-02-02T15:01:52.177Z,1.20
2019-02-02T15:04:19.035Z,1.30
2019-02-02T15:06:45.835Z,1.20
2019-02-02T15:09:12.656Z,1.20
2019-02-02T15:11:39.512Z,1.10
2019-02-02T15:14:07.109Z,1.00
2019-02-02T15:16:34.485Z,1.00
2019-02-02T15:19:01.308Z,1.00
2019-02-02T15:21:28.154Z,1.10
2019-02-02T15:23:55.071Z,1.00
2019-02-02T15:26:21.868Z,1.00
2019-02-02T15:28:48.642Z,1.00
2019-02-02T15:31:15.430Z,1.00
2019-02-02T15:33:42.244Z,1.00
2019-02-02T15:36:09.005Z,1.00
2019-02-02T15:38:35.778Z,0.90
2019-02-02T15:41:03.160Z,0.90
2019-02-02T15:43:30.149Z,0.90
2019-02-02T15:45:56.911Z,1.00
2019-02-02T15:48:23.812Z,0.80
2019-02-02T15:50:50.671Z,0.80
2019-02-02T15:53:17.394Z,0.90
2019-02-02T15:55:44.246Z,0.80
2019-02-02T15:58:11.889Z,0.80
2019-02-02T16:00:38.654Z,0.70
2019-02-02T16:03:07.764Z,0.80
2019-02-02T16:05:36.268Z,0.70
2019-02-02T16:08:03.252Z,0.80
2019-02-02T16:10:31.435Z,0.80
2019-02-02T16:12:58.268Z,0.80
2019-02-02T16:15:25.153Z,0.80
2019-02-02T16:17:52.758Z,0.90
2019-02-02T16:20:22.383Z,0.90
2019-02-02T16:22:49.199Z,0.90
2019-02-02T16:25:16.129Z,1.00
2019-02-02T16:27:42.985Z,1.00
2019-02-02T16:30:10.781Z,1.00
2019-02-02T16:32:38.324Z,0.90
2019-02-02T16:35:05.959Z,0.80
2019-02-02T16:37:36.267Z,0.80
2019-02-02T16:40:01.291Z,0.70
2019-02-02T16:42:28.877Z,0.80
2019-02-02T16:44:55.719Z,0.80
2019-02-02T16:47:22.883Z,0.80
2019-02-02T16:49:49.628Z,0.70
2019-02-02T16:52:16.448Z,0.60
2019-02-02T16:54:43.272Z,0.60
2019-02-02T16:57:10.771Z,0.40
2019-02-02T16:59:37.601Z,0.40
2019-02-02T17:02:04.412Z,0.50
2019-02-02T17:04:31.257Z,0.60
2019-02-02T17:06:58.793Z,0.60
2019-02-02T17:09:25.532Z,0.60
2019-02-02T17:11:52.286Z,0.60
2019-02-02T17:14:19.858Z,0.60
2019-02-02T17:16:48.043Z,0.60
2019-02-02T17:19:16.590Z,0.60
2019-02-02T17:21:45.526Z,0.60
2019-02-02T17:24:12.975Z,0.50
2019-02-02T17:26:46.350Z,0.50
2019-02-02T17:29:13.942Z,0.50
2019-02-02T17:31:40.715Z,0.50
2019-02-02T17:34:07.510Z,0.40
2019-02-02T17:36:35.090Z,0.50
2019-02-02T17:39:01.862Z,0.50
2019-02-02T17:41:29.574Z,0.50
2019-02-02T17:43:56.452Z,0.50
2019-02-02T17:46:23.262Z,0.50
2019-02-02T17:48:50.773Z,0.50
2019-02-02T17:51:17.721Z,0.50
2019-02-02T17:53:44.780Z,0.40
2019-02-02T17:56:11.773Z,0.50
2019-02-02T17:58:39.940Z,0.40
2019-02-02T18:01:06.526Z,0.50
2019-02-02T18:03:33.308Z,0.50
2019-02-02T18:06:00.272Z,0.50
2019-02-02T18:08:28.009Z,0.60
2019-02-02T18:10:55.672Z,0.40
2019-02-02T18:13:22.533Z,0.40
2019-02-02T18:15:50.111Z,0.40
2019-02-02T18:18:16.879Z,0.40
2019-02-02T18:20:43.744Z,0.40
2019-02-02T18:23:10.503Z,0.40
2019-02-02T18:25:37.973Z,0.50
2019-02-02T18:28:08.033Z,0.40
2019-02-02T18:30:35.029Z,0.50
2019-02-02T18:33:01.824Z,0.50
2019-02-02T18:35:31.334Z,0.50
2019-02-02T18:37:58.156Z,0.50
2019-02-02T18:40:24.937Z,0.60
2019-02-02T18:42:51.966Z,0.50
2019-02-02T18:45:18.697Z,0.50
2019-02-02T18:47:45.471Z,0.40
2019-02-02T18:50:13.800Z,0.40
2019-02-02T18:52:40.700Z,0.50
2019-02-02T18:55:08.535Z,0.50
2019-02-02T18:57:37.228Z,0.50
2019-02-02T19:00:06.077Z,0.50
2019-02-02T19:02:30.911Z,0.40
2019-02-02T19:05:04.093Z,0.40
2019-02-02T19:07:26.843Z,0.40
2019-02-02T19:09:53.718Z,0.40
2019-02-02T19:12:20.441Z,0.50
2019-02-02T19:14:47.166Z,0.40
2019-02-02T19:17:14.036Z,0.40
2019-02-02T19:19:40.855Z,0.40
2019-02-02T19:22:09.645Z,0.40
2019-02-02T19:24:36.597Z,0.40
2019-02-02T19:27:06.539Z,0.40
2019-02-02T19:29:34.075Z,0.40
2019-02-02T19:32:00.801Z,0.40
2019-02-02T19:34:27.586Z,0.30
2019-02-02T19:36:55.039Z,0.30
2019-02-02T19:39:23.558Z,0.30
2019-02-02T19:41:50.555Z,0.30
2019-02-02T19:44:17.543Z,0.40
2019-02-02T19:46:44.250Z,0.30
2019-02-02T19:49:11.894Z,0.40
2019-02-02T19:51:38.639Z,0.30
2019-02-02T19:54:07.590Z,0.40
2019-02-02T19:56:32.748Z,0.40
2019-02-02T19:59:00.301Z,0.40
2019-02-02T20:01:29.457Z,0.40
2019-02-02T20:03:58.714Z,0.30
2019-02-02T20:06:26.152Z,0.30
2019-02-02T20:08:53.706Z,0.40
2019-02-02T20:11:20.534Z,0.40
2019-02-02T20:13:47.995Z,0.40
2019-02-02T20:16:15.572Z,0.40
2019-02-02T20:18:42.351Z,0.40
2019-02-02T20:21:09.065Z,0.40
2019-02-02T20:23:38.495Z,0.50
2019-02-02T20:26:02.661Z,0.50
2019-02-02T20:28:29.326Z,0.40
2019-02-02T20:31:00.881Z,0.50
2019-02-02T20:33:27.741Z,0.40
2019-02-02T20:35:54.498Z,0.40
2019-02-02T20:38:21.573Z,0.40
2019-02-02T20:40:49.666Z,0.50
2019-02-02T20:43:16.417Z,0.50
2019-02-02T20:45:43.242Z,0.40
2019-02-02T20:48:10.097Z,0.50
2019-02-02T20:50:37.652Z,0.60
2019-02-02T20:53:04.537Z,0.50
2019-02-02T20:55:32.389Z,0.60
2019-02-02T20:57:59.938Z,0.50
2019-02-02T21:00:28.705Z,0.50
2019-02-02T21:02:56.462Z,0.40
2019-02-02T21:05:26.715Z,0.50
2019-02-02T21:07:54.510Z,0.50
2019-02-02T21:10:24.113Z,0.50
2019-02-02T21:12:51.043Z,0.50
2019-02-02T21:15:17.778Z,0.40
2019-02-02T21:17:44.604Z,0.30
2019-02-02T21:20:13.078Z,0.30
2019-02-02T21:22:39.793Z,0.30
2019-02-02T21:25:06.683Z,0.40
2019-02-02T21:27:33.519Z,0.40
2019-02-02T21:30:00.353Z,0.40
2019-02-02T21:32:27.084Z,0.40
2019-02-02T21:34:54.581Z,0.30
2019-02-02T21:37:21.624Z,0.30
2019-02-02T21:39:48.502Z,0.30
2019-02-02T21:42:15.958Z,0.30
2019-02-02T21:44:43.835Z,0.30
2019-02-02T21:47:10.925Z,0.30
2019-02-02T21:49:37.792Z,0.30
2019-02-02T21:52:05.544Z,0.20
2019-02-02T21:54:32.293Z,0.20
2019-02-02T21:57:01.521Z,0.20
2019-02-02T21:59:29.536Z,0.20
2019-02-02T22:01:55.957Z,0.20
2019-02-02T22:04:22.835Z,0.20
2019-02-02T22:06:49.585Z,0.20
2019-02-02T22:09:16.298Z,0.10
2019-02-02T22:11:44.683Z,0.20
2019-02-02T22:14:11.482Z,0.20
2019-02-02T22:16:38.309Z,0.10
2019-02-02T22:19:05.915Z,0.10
2019-02-02T22:21:32.783Z,0.10
2019-02-02T22:23:59.625Z,0.00
2019-02-02T22:26:26.346Z,0.00
2019-02-02T22:28:53.208Z,0.10
2019-02-02T22:31:19.985Z,0.00
2019-02-02T22:33:46.679Z,0.00
2019-02-02T22:36:13.471Z,-0.10
2019-02-02T22:38:40.970Z,-0.10
2019-02-02T22:41:08.511Z,0.00
2019-02-02T22:43:35.391Z,0.00
2019-02-02T22:46:02.199Z,0.00
2019-02-02T22:48:29.060Z,0.00
2019-02-02T22:50:56.241Z,-0.10
2019-02-02T22:53:23.140Z,-0.10
2019-02-02T22:55:51.536Z,-0.10
2019-02-02T22:58:18.446Z,-0.10
2019-02-02T23:01:07.047Z,-0.20
2019-02-02T23:03:35.306Z,-0.20
2019-02-02T23:06:25.887Z,-0.20
2019-02-02T23:08:54.524Z,-0.20
2019-02-02T23:11:45.737Z,-0.30
2019-02-02T23:17:04.974Z,-0.30
2019-02-02T23:19:31.762Z,-0.30
2019-02-02T23:21:58.511Z,-0.30
2019-02-02T23:24:25.921Z,-0.40
2019-02-02T23:26:52.730Z,-0.40
2019-02-02T23:29:19.463Z,-0.40
2019-02-02T23:31:47.983Z,-0.40
2019-02-02T23:34:15.980Z,-0.40
2019-02-02T23:36:50.874Z,-0.40
2019-02-02T23:39:11.898Z,-0.40
2019-02-02T23:41:40.018Z,-0.50
2019-02-02T23:44:07.412Z,-0.50
2019-02-02T23:46:34.158Z,-0.50
2019-02-02T23:49:01.050Z,-0.40
2019-02-02T23:51:27.851Z,-0.40
2019-02-02T23:53:56.403Z,-0.40
2019-02-02T23:56:23.336Z,-0.40
2019-02-02T23:58:50.059Z,-0.40
